Time;durP1;ratioP1;P1;durP2;ratioP2;P2;SDS_P1;SDS_P2;PMS_P1;PMS_P2;Temp;Humidity;BMP_temperature;BMP_pressure;BME280_temperature;BME280_humidity;BME280_pressure;Samples;Min_cycle;Max_cycle;Signal;HPM_P1;HPM_P2
2024/04/01 00:00:25;;;;;;;5.32;1.48;;;;;;;11.05;100.00;90886.59;2103361;28;20047;-84
2024/04/01 00:01:27;;;;;;;2.85;1.20;;;;;;;11.05;100.00;90878.56;2103950;28;20020;-85
2024/04/01 00:02:29;;;;;;;2.92;1.30;;;;;;;11.03;100.00;90888.28;2116029;27;20029;-82
2024/04/01 00:03:30;;;;;;;3.28;0.95;;;;;;;10.84;100.00;90882.50;2106306;28;20031;-82
2024/04/01 00:04:31;;;;;;;3.75;1.25;;;;;;;10.86;100.00;90874.03;2106593;28;20024;-80
2024/04/01 00:05:32;;;;;;;5.78;1.27;;;;;;;10.92;100.00;90870.19;2112306;28;20028;-84
2024/04/01 00:06:33;;;;;;;3.03;1.27;;;;;;;10.84;100.00;90874.47;2111304;27;20103;-83
2024/04/01 00:07:34;;;;;;;2.95;1.20;;;;;;;10.83;100.00;90865.00;2118159;27;20027;-84
2024/04/01 00:08:41;;;;;;;3.72;1.20;;;;;;;10.88;100.00;90858.97;2108380;28;20024;-82
2024/04/01 00:09:42;;;;;;;3.95;1.20;;;;;;;10.77;100.00;90848.94;2108198;27;20077;-82
2024/04/01 00:10:42;;;;;;;3.88;1.40;;;;;;;10.75;100.00;90850.59;2115377;27;20440;-83
2024/04/01 00:11:44;;;;;;;5.45;1.33;;;;;;;10.79;100.00;90843.09;2114872;28;20017;-85
2024/04/01 00:12:45;;;;;;;3.38;1.45;;;;;;;10.83;100.00;90843.63;2102469;28;20053;-84
2024/04/01 00:13:46;;;;;;;4.78;1.38;;;;;;;10.88;100.00;90842.19;2107565;28;20384;-85
2024/04/01 00:14:47;;;;;;;4.40;1.30;;;;;;;10.89;100.00;90849.78;2123318;27;20087;-83
2024/04/01 00:15:48;;;;;;;2.22;0.93;;;;;;;10.87;100.00;90848.75;2127194;27;20480;-81
2024/04/01 00:16:49;;;;;;;5.93;1.45;;;;;;;10.88;100.00;90840.25;2115153;28;20053;-82
2024/04/01 00:17:50;;;;;;;4.88;1.33;;;;;;;10.80;100.00;90836.56;2098453;28;20052;-81
2024/04/01 00:18:51;;;;;;;5.90;1.73;;;;;;;10.99;100.00;90821.66;2106764;28;20577;-83
2024/04/01 00:19:52;;;;;;;2.55;1.00;;;;;;;11.12;100.00;90812.53;2114917;28;20035;-84
2024/04/01 00:20:57;;;;;;;5.35;1.40;;;;;;;11.01;100.00;90803.19;2098249;28;20098;-83
2024/04/01 00:21:58;;;;;;;2.60;1.20;;;;;;;11.09;100.00;90806.91;2091590;28;20078;-85
2024/04/01 00:22:59;;;;;;;3.22;1.20;;;;;;;11.09;100.00;90800.81;2101514;28;20400;-83
2024/04/01 00:24:00;;;;;;;5.30;1.33;;;;;;;10.92;100.00;90803.38;2106630;28;20027;-82
2024/04/01 00:25:01;;;;;;;3.35;1.23;;;;;;;11.05;100.00;90806.38;2114893;28;20472;-83
2024/04/01 00:26:02;;;;;;;2.15;1.20;;;;;;;11.02;100.00;90796.66;2106957;28;20489;-84
2024/04/01 00:27:04;;;;;;;4.28;1.08;;;;;;;10.83;100.00;90793.56;2105624;28;20031;-82
2024/04/01 00:28:05;;;;;;;2.92;1.10;;;;;;;10.96;100.00;90790.53;2093146;28;20087;-81
2024/04/01 00:29:06;;;;;;;4.70;1.05;;;;;;;10.99;100.00;90786.91;2105562;28;20664;-83
2024/04/01 00:30:07;;;;;;;3.72;1.25;;;;;;;10.79;100.00;90786.97;2117534;27;20483;-82
2024/04/01 00:31:08;;;;;;;5.95;1.45;;;;;;;10.91;100.00;90771.78;2108474;27;20044;-81
2024/04/01 00:32:09;;;;;;;4.28;1.00;;;;;;;10.67;100.00;90774.72;2099418;28;20122;-84
2024/04/01 00:33:10;;;;;;;4.82;1.30;;;;;;;10.96;100.00;90774.47;2108518;27;20107;-82
2024/04/01 00:34:11;;;;;;;3.05;1.23;;;;;;;10.76;100.00;90759.28;2114117;27;20031;-84
2024/04/01 00:35:14;;;;;;;2.50;1.00;;;;;;;10.81;100.00;90753.25;2104987;28;20055;-83
2024/04/01 00:36:15;;;;;;;4.18;1.10;;;;;;;10.83;100.00;90736.72;2106135;28;20024;-83
2024/04/01 00:37:16;;;;;;;2.85;1.00;;;;;;;10.77;100.00;90723.34;2109648;28;20023;-81
2024/04/01 00:38:17;;;;;;;4.80;1.15;;;;;;;10.78;100.00;90716.78;2106208;27;20035;-83
2024/04/01 00:39:19;;;;;;;4.82;1.25;;;;;;;10.73;100.00;90698.78;2114988;28;20484;-82
2024/04/01 00:40:20;;;;;;;3.42;1.20;;;;;;;10.72;100.00;90693.91;2119258;27;20084;-83
2024/04/01 00:41:22;;;;;;;2.42;0.95;;;;;;;10.63;100.00;90699.44;2106274;28;20019;-85
2024/04/01 00:42:22;;;;;;;3.80;1.17;;;;;;;10.62;100.00;90695.28;2089782;28;20061;-80
2024/04/01 00:43:25;;;;;;;1.95;0.85;;;;;;;10.62;100.00;90703.28;2106299;28;20028;-83
2024/04/01 00:44:26;;;;;;;4.28;1.25;;;;;;;10.49;100.00;90717.03;2114876;28;20086;-84
2024/04/01 00:45:27;;;;;;;3.05;1.02;;;;;;;10.61;100.00;90723.94;2106407;28;20046;-85
2024/04/01 00:46:28;;;;;;;3.08;1.00;;;;;;;10.59;100.00;90729.03;2114702;28;20061;-84
2024/04/01 00:47:30;;;;;;;4.38;1.27;;;;;;;10.54;100.00;90735.78;2114735;28;20075;-82
2024/04/01 00:48:31;;;;;;;2.47;1.05;;;;;;;10.55;100.00;90737.25;2115660;27;20583;-85
2024/04/01 00:49:32;;;;;;;2.72;1.08;;;;;;;10.52;100.00;90742.81;2119228;27;20023;-81
2024/04/01 00:50:35;;;;;;;3.22;1.00;;;;;;;10.51;100.00;90744.75;2121949;27;20031;-82
2024/04/01 00:51:38;;;;;;;2.50;0.80;;;;;;;10.37;100.00;90747.53;2114660;28;20452;-85
2024/04/01 00:52:39;;;;;;;5.35;1.10;;;;;;;10.47;100.00;90743.50;2112932;27;20024;-84
2024/04/01 00:53:41;;;;;;;2.22;0.82;;;;;;;10.47;100.00;90741.56;2114694;28;20027;-83
2024/04/01 00:54:42;;;;;;;2.65;1.05;;;;;;;10.49;100.00;90747.16;2123216;27;20039;-84
2024/04/01 00:55:44;;;;;;;2.15;0.70;;;;;;;10.46;100.00;90740.09;2111626;28;20069;-81
2024/04/01 00:56:48;;;;;;;2.17;0.70;;;;;;;10.48;100.00;90731.59;2097958;28;20024;-81
2024/04/01 00:57:51;;;;;;;3.88;1.00;;;;;;;10.47;100.00;90740.81;2101780;28;20020;-82
2024/04/01 00:58:53;;;;;;;2.65;0.98;;;;;;;10.29;100.00;90742.59;2108191;28;20030;-84
2024/04/01 00:59:54;;;;;;;3.45;1.08;;;;;;;10.40;100.00;90743.91;2108397;28;20032;-83
2024/04/01 01:00:57;;;;;;;2.00;0.77;;;;;;;10.42;100.00;90746.84;2108580;27;20035;-84
2024/04/01 01:01:58;;;;;;;3.55;0.98;;;;;;;10.34;100.00;90755.28;2107814;28;20538;-81
2024/04/01 01:02:59;;;;;;;4.10;1.05;;;;;;;10.57;100.00;90752.78;2091051;28;20037;-83
2024/04/01 01:04:02;;;;;;;3.00;0.90;;;;;;;10.62;100.00;90744.09;2092436;28;20127;-84
2024/04/01 01:05:05;;;;;;;5.28;1.08;;;;;;;10.46;100.00;90756.13;2099830;28;20456;-83
2024/04/01 01:06:11;;;;;;;2.47;1.20;;;;;;;10.45;100.00;90748.59;2111914;27;20106;-83
2024/04/01 01:07:12;;;;;;;3.10;0.88;;;;;;;10.55;100.00;90749.88;2105091;28;20472;-85
2024/04/01 01:08:14;;;;;;;2.25;0.82;;;;;;;10.61;100.00;90747.25;2097999;28;20036;-85
2024/04/01 01:09:15;;;;;;;2.95;0.93;;;;;;;10.58;100.00;90747.00;2113646;28;20505;-85
2024/04/01 01:10:22;;;;;;;2.70;0.98;;;;;;;10.62;100.00;90743.38;2122090;27;20027;-83
2024/04/01 01:11:24;;;;;;;2.67;1.20;;;;;;;10.47;100.00;90736.22;2123167;27;20023;-85
2024/04/01 01:12:25;;;;;;;2.63;1.00;;;;;;;10.39;100.00;90748.53;2106277;28;20079;-85
2024/04/01 01:13:26;;;;;;;3.80;1.15;;;;;;;10.34;100.00;90749.22;2101271;28;20028;-81
2024/04/01 01:14:26;;;;;;;5.40;0.95;;;;;;;10.45;100.00;90752.00;2106178;28;20545;-86
2024/04/01 01:15:30;;;;;;;2.33;0.80;;;;;;;10.37;100.00;90752.88;2106052;28;20102;-81
2024/04/01 01:16:31;;;;;;;1.70;0.73;;;;;;;10.40;100.00;90751.91;2097720;28;20040;-83
2024/04/01 01:17:33;;;;;;;3.10;0.85;;;;;;;10.33;100.00;90750.41;2097834;28;20056;-81
2024/04/01 01:18:34;;;;;;;3.63;1.08;;;;;;;10.43;100.00;90751.72;2096420;28;20114;-82
2024/04/01 01:19:35;;;;;;;3.38;0.90;;;;;;;10.37;100.00;90753.63;2108701;28;20400;-82
2024/04/01 01:20:37;;;;;;;2.95;0.90;;;;;;;10.33;100.00;90739.72;2079618;28;20027;-84
2024/04/01 01:21:38;;;;;;;3.70;1.20;;;;;;;10.17;100.00;90729.59;2011485;28;20036;-82
2024/04/01 01:22:40;;;;;;;2.55;1.00;;;;;;;10.18;100.00;90736.41;2022325;28;20890;-81
2024/04/01 01:23:41;;;;;;;5.63;1.08;;;;;;;10.30;100.00;90740.66;2022012;28;20055;-82
2024/04/01 01:24:42;;;;;;;5.07;1.13;;;;;;;10.27;100.00;90736.25;2026613;28;20028;-83
2024/04/01 01:25:43;;;;;;;5.45;1.00;;;;;;;10.27;100.00;90730.94;2025422;28;20826;-83
2024/04/01 01:26:45;;;;;;;1.73;0.77;;;;;;;10.16;100.00;90736.88;2031523;28;20066;-83
2024/04/01 01:27:46;;;;;;;2.10;0.80;;;;;;;10.07;100.00;90726.34;2043496;28;20501;-82
2024/04/01 01:28:48;;;;;;;2.05;0.80;;;;;;;10.19;100.00;90716.53;2056971;28;20042;-83
2024/04/01 01:29:49;;;;;;;1.90;0.75;;;;;;;10.27;100.00;90710.31;2059999;27;20097;-83
2024/04/01 01:30:50;;;;;;;1.75;0.70;;;;;;;10.26;100.00;90706.16;2045754;28;20024;-84
2024/04/01 01:31:51;;;;;;;3.22;0.75;;;;;;;10.21;100.00;90714.84;2048587;28;20116;-80
2024/04/01 01:32:54;;;;;;;1.63;0.77;;;;;;;10.20;100.00;90726.72;2070417;28;20069;-83
2024/04/01 01:33:57;;;;;;;2.03;0.80;;;;;;;10.22;100.00;90736.91;2087249;27;20031;-84
2024/04/01 01:34:59;;;;;;;2.95;1.33;;;;;;;10.16;100.00;90736.16;2092059;27;20532;-80
2024/04/01 01:36:01;;;;;;;3.25;0.93;;;;;;;10.09;100.00;90735.34;2078070;28;20032;-81
2024/04/01 01:37:01;;;;;;;3.65;0.80;;;;;;;10.16;100.00;90736.88;2089618;28;20120;-81
2024/04/01 01:38:04;;;;;;;2.38;0.90;;;;;;;10.15;100.00;90738.09;2102434;28;20031;-85
2024/04/01 01:39:05;;;;;;;2.35;1.00;;;;;;;10.13;100.00;90740.47;2113804;28;20020;-81
2024/04/01 01:40:08;;;;;;;2.08;0.88;;;;;;;10.31;100.00;90747.47;2105761;28;20032;-82
2024/04/01 01:41:09;;;;;;;2.05;0.73;;;;;;;10.15;100.00;90754.09;2106858;28;20035;-82
2024/04/01 01:42:10;;;;;;;1.52;0.63;;;;;;;10.27;100.00;90760.28;2122760;27;20023;-81
2024/04/01 01:43:11;;;;;;;2.33;0.68;;;;;;;10.31;100.00;90761.53;2121819;27;20523;-85
2024/04/01 01:44:12;;;;;;;3.67;1.02;;;;;;;10.18;100.00;90763.09;2098682;28;20047;-83
2024/04/01 01:45:13;;;;;;;1.60;0.70;;;;;;;10.22;100.00;90755.59;2109508;27;20028;-83
2024/04/01 01:46:14;;;;;;;2.97;0.90;;;;;;;10.21;100.00;90740.81;2029278;28;20030;-82
2024/04/01 01:47:16;;;;;;;2.17;1.17;;;;;;;10.00;100.00;90726.75;2006100;28;20028;-83
2024/04/01 01:48:17;;;;;;;3.38;0.63;;;;;;;9.99;100.00;90726.03;2017285;28;20483;-82
2024/04/01 01:49:18;;;;;;;3.20;0.95;;;;;;;9.99;100.00;90730.63;2025096;28;20065;-82
2024/04/01 01:50:19;;;;;;;2.72;0.93;;;;;;;9.92;100.00;90718.44;2031361;28;20035;-81
2024/04/01 01:51:20;;;;;;;1.35;0.52;;;;;;;9.90;100.00;90704.84;2035296;28;22813;-81
2024/04/01 01:52:21;;;;;;;5.25;0.95;;;;;;;10.04;100.00;90700.59;2051935;28;20492;-82
2024/04/01 01:53:22;;;;;;;2.65;0.82;;;;;;;9.77;100.00;90688.44;2061655;28;20035;-81
2024/04/01 01:54:23;;;;;;;3.63;1.02;;;;;;;9.84;100.00;90672.78;2061579;28;20716;-81
2024/04/01 01:55:24;;;;;;;2.08;0.70;;;;;;;9.87;100.00;90657.00;2065059;27;20985;-81
2024/04/01 01:56:25;;;;;;;3.10;0.73;;;;;;;9.88;100.00;90642.47;2079446;27;20146;-81
2024/04/01 01:57:28;;;;;;;2.65;0.80;;;;;;;9.73;100.00;90631.91;2088439;28;20040;-81
2024/04/01 01:58:29;;;;;;;2.33;0.82;;;;;;;9.91;100.00;90646.84;2089894;28;20386;-83
2024/04/01 01:59:30;;;;;;;1.75;0.68;;;;;;;9.91;100.00;90652.94;2108440;28;20038;-85
2024/04/01 02:00:30;;;;;;;2.83;0.80;;;;;;;9.92;100.00;90665.09;2089166;28;20032;-83
2024/04/01 02:01:31;;;;;;;2.35;0.73;;;;;;;9.87;100.00;90657.75;2100354;28;20024;-81
2024/04/01 02:02:32;;;;;;;3.33;0.85;;;;;;;9.99;100.00;90659.31;2122676;27;20072;-84
2024/04/01 02:03:33;;;;;;;1.10;0.50;;;;;;;9.99;100.00;90664.66;2114251;28;20471;-85
2024/04/01 02:04:34;;;;;;;3.30;1.13;;;;;;;9.94;100.00;90656.59;2103720;28;20106;-82
2024/04/01 02:05:37;;;;;;;2.20;0.70;;;;;;;10.06;100.00;90674.19;2112009;28;20030;-84
2024/04/01 02:06:38;;;;;;;1.45;0.60;;;;;;;10.15;100.00;90686.63;2122663;27;20023;-86
2024/04/01 02:07:39;;;;;;;3.03;0.82;;;;;;;10.02;100.00;90695.00;2114092;28;20019;-84
2024/04/01 02:08:40;;;;;;;2.47;0.77;;;;;;;10.01;100.00;90702.28;2109414;28;20031;-84
2024/04/01 02:09:41;;;;;;;2.88;0.90;;;;;;;9.94;100.00;90702.69;2106830;28;20357;-86
2024/04/01 02:10:42;;;;;;;0.60;0.60;;;;;;;10.08;100.00;90709.84;2105560;28;20038;-83
2024/04/01 02:11:43;;;;;;;2.38;0.77;;;;;;;10.07;100.00;90707.66;2103455;28;20026;-84
2024/04/01 02:12:44;;;;;;;4.38;0.80;;;;;;;9.99;100.00;90720.69;2105461;28;20081;-84
2024/04/01 02:13:45;;;;;;;2.05;0.77;;;;;;;10.09;100.00;90718.59;2105704;28;20107;-81
2024/04/01 02:14:47;;;;;;;4.32;0.90;;;;;;;10.04;100.00;90700.59;2113928;28;20092;-85
2024/04/01 02:15:48;;;;;;;2.70;0.70;;;;;;;10.02;100.00;90698.41;2105300;28;20031;-83
2024/04/01 02:16:52;;;;;;;1.33;0.60;;;;;;;10.05;100.00;90691.38;2106101;27;20041;-82
2024/04/01 02:17:53;;;;;;;1.27;0.60;;;;;;;10.11;100.00;90689.50;2105650;28;20030;-87
2024/04/01 02:18:54;;;;;;;1.10;0.70;;;;;;;10.14;100.00;90690.50;2101569;28;20085;-80
2024/04/01 02:19:55;;;;;;;2.15;0.65;;;;;;;10.01;100.00;90680.94;2098273;28;20066;-83
2024/04/01 02:20:58;;;;;;;1.20;0.52;;;;;;;10.06;100.00;90682.19;2094067;28;20480;-85
2024/04/01 02:21:59;;;;;;;1.35;0.60;;;;;;;9.96;100.00;90680.88;2098052;28;20450;-82
2024/04/01 02:23:02;;;;;;;1.75;0.70;;;;;;;10.10;100.00;90677.38;2108877;28;20099;-84
2024/04/01 02:24:03;;;;;;;1.05;0.60;;;;;;;9.99;100.00;90677.25;2114314;28;20091;-83
2024/04/01 02:25:04;;;;;;;1.90;0.98;;;;;;;10.00;100.00;90671.44;2105744;28;20082;-81
2024/04/01 02:27:32;;;;;;;;;;;;;;;9.03;100.00;90672.81;2143844;27;20102;-79
2024/04/01 02:28:35;;;;;;;1.48;0.57;;;;;;;9.17;100.00;90664.03;2115222;28;19919;-82
2024/04/01 02:29:37;;;;;;;1.67;0.70;;;;;;;9.21;100.00;90664.56;2121220;27;20103;-81
2024/04/01 02:30:38;;;;;;;2.55;0.70;;;;;;;9.13;100.00;90655.50;2121281;28;20019;-85
2024/04/01 02:31:39;;;;;;;2.60;0.90;;;;;;;9.16;100.00;90661.84;2113005;28;20020;-81
2024/04/01 02:32:40;;;;;;;0.95;0.60;;;;;;;9.05;100.00;90671.16;2107153;28;20032;-83
2024/04/01 02:33:41;;;;;;;1.77;0.63;;;;;;;9.09;100.00;90684.28;2121143;27;20023;-83
2024/04/01 02:34:42;;;;;;;1.70;0.60;;;;;;;9.01;100.00;90680.56;2121113;28;20027;-83
2024/04/01 02:35:43;;;;;;;1.92;0.63;;;;;;;9.07;100.00;90684.00;2112989;28;20035;-83
2024/04/01 02:36:44;;;;;;;3.08;0.70;;;;;;;9.04;100.00;90683.03;2100819;28;20013;-82
2024/04/01 02:37:45;;;;;;;1.23;0.77;;;;;;;9.20;100.00;90673.75;2113045;28;20031;-81
2024/04/01 02:38:47;;;;;;;1.17;0.65;;;;;;;9.27;100.00;90673.38;2109478;28;20070;-83
2024/04/01 02:39:48;;;;;;;1.27;0.73;;;;;;;9.18;100.00;90673.50;2108224;28;20067;-83
2024/04/01 02:40:49;;;;;;;3.20;0.80;;;;;;;9.36;100.00;90677.84;2112780;28;20085;-83
2024/04/01 02:41:51;;;;;;;2.10;0.65;;;;;;;9.30;100.00;90669.75;2121420;28;20233;-81
2024/04/01 02:42:52;;;;;;;2.20;0.73;;;;;;;9.15;100.00;90668.38;2130347;27;20390;-81
2024/04/01 02:43:53;;;;;;;1.33;0.80;;;;;;;9.15;100.00;90668.38;2121290;28;20023;-84
2024/04/01 02:44:54;;;;;;;2.25;0.63;;;;;;;9.12;100.00;90661.28;2121222;27;20074;-83
2024/04/01 02:45:55;;;;;;;1.75;0.60;;;;;;;9.16;100.00;90659.91;2120778;28;20015;-82
2024/04/01 02:46:55;;;;;;;1.67;0.70;;;;;;;9.29;100.00;90662.97;2125149;27;20575;-84
2024/04/01 02:47:56;;;;;;;2.17;0.70;;;;;;;9.44;100.00;90659.47;2105050;28;20067;-83
2024/04/01 02:48:57;;;;;;;1.88;0.70;;;;;;;9.44;100.00;90649.56;2090456;28;20028;-86
2024/04/01 02:49:58;;;;;;;1.30;0.77;;;;;;;9.39;100.00;90654.81;2095768;28;20341;-85
2024/04/01 02:50:59;;;;;;;2.45;0.60;;;;;;;9.34;100.00;90654.28;2107963;28;20412;-81
2024/04/01 02:52:01;;;;;;;2.05;0.60;;;;;;;9.20;100.00;90647.09;2098768;28;20056;-85
2024/04/01 02:53:10;;;;;;;2.35;0.60;;;;;;;9.23;100.00;90645.44;2113337;28;20472;-83
2024/04/01 02:54:11;;;;;;;1.13;0.50;;;;;;;9.21;100.00;90643.22;2112449;28;20395;-81
2024/04/01 02:55:12;;;;;;;1.55;0.68;;;;;;;9.21;100.00;90645.16;2121051;27;20031;-82
2024/04/01 02:56:14;;;;;;;1.48;0.70;;;;;;;9.22;100.00;90650.06;2124861;27;20045;-83
2024/04/01 02:57:15;;;;;;;2.60;0.75;;;;;;;9.27;100.00;90646.72;2113795;27;20086;-83
2024/04/01 02:58:16;;;;;;;2.20;0.80;;;;;;;9.21;100.00;90661.16;2128323;27;20102;-83
2024/04/01 02:59:17;;;;;;;1.92;0.55;;;;;;;9.12;100.00;90667.34;2115033;28;20024;-83
2024/04/01 03:00:19;;;;;;;1.75;0.75;;;;;;;9.18;100.00;90670.09;2111929;28;20441;-80
2024/04/01 03:01:20;;;;;;;2.40;0.90;;;;;;;9.10;100.00;90669.75;2121101;27;20031;-83
2024/04/01 03:02:21;;;;;;;1.40;0.90;;;;;;;9.07;100.00;90668.75;2112826;28;20031;-82
2024/04/01 03:03:22;;;;;;;2.17;0.70;;;;;;;9.17;100.00;90664.03;2095868;28;20075;-83
2024/04/01 03:04:23;;;;;;;1.55;0.57;;;;;;;9.29;100.00;90670.22;2104413;28;20029;-81
2024/04/01 03:05:23;;;;;;;1.30;0.60;;;;;;;9.34;100.00;90666.88;2120950;28;20019;-83
2024/04/01 03:06:24;;;;;;;1.38;0.68;;;;;;;9.25;100.00;90667.75;2104400;28;20021;-81
2024/04/01 03:07:25;;;;;;;1.20;0.60;;;;;;;9.21;100.00;90666.50;2108972;28;20024;-84
2024/04/01 03:08:26;;;;;;;1.92;0.82;;;;;;;9.16;100.00;90673.22;2112600;28;20028;-83
2024/04/01 03:09:27;;;;;;;2.88;0.93;;;;;;;9.12;100.00;90680.69;2112631;28;20024;-82
2024/04/01 03:10:28;;;;;;;2.65;0.68;;;;;;;9.12;100.00;90685.28;2117486;28;20028;-82
2024/04/01 03:11:29;;;;;;;2.35;0.80;;;;;;;9.06;100.00;90693.22;2120924;27;20027;-81
2024/04/01 03:12:30;;;;;;;1.40;0.70;;;;;;;9.11;100.00;90684.56;2121230;28;20222;-83
2024/04/01 03:13:39;;;;;;;0.93;0.60;;;;;;;9.05;100.00;90678.44;2121175;28;20031;-84
2024/04/01 03:14:40;;;;;;;2.47;0.60;;;;;;;9.26;100.00;90673.81;2119729;28;20031;-83
2024/04/01 03:15:41;;;;;;;1.42;0.70;;;;;;;9.18;100.00;90683.44;2120192;28;20055;-82
2024/04/01 03:16:42;;;;;;;1.75;0.80;;;;;;;9.12;100.00;90685.28;2112208;28;20074;-84
2024/04/01 03:17:43;;;;;;;2.05;0.80;;;;;;;9.05;100.00;90687.16;2115871;27;20031;-81
2024/04/01 03:18:44;;;;;;;1.60;0.70;;;;;;;9.08;100.00;90691.53;2120192;28;20103;-83
2024/04/01 03:19:45;;;;;;;2.58;0.60;;;;;;;9.10;100.00;90695.69;2121899;27;20239;-82
2024/04/01 03:20:47;;;;;;;1.08;0.60;;;;;;;9.16;100.00;90699.13;2113445;28;20027;-81
2024/04/01 03:21:48;;;;;;;0.95;0.60;;;;;;;9.27;100.00;90702.69;2099304;28;20028;-81
2024/04/01 03:22:49;;;;;;;1.90;0.75;;;;;;;9.17;100.00;90696.00;2112394;28;20024;-82
2024/04/01 03:23:51;;;;;;;1.58;0.60;;;;;;;9.20;100.00;90687.09;2120576;28;20410;-85
2024/04/01 03:24:54;;;;;;;1.58;0.70;;;;;;;9.22;100.00;90691.94;2111443;28;20031;-86
2024/04/01 03:25:54;;;;;;;2.75;0.82;;;;;;;9.27;100.00;90702.69;2123108;27;20241;-85
2024/04/01 03:26:55;;;;;;;1.33;0.70;;;;;;;9.29;100.00;90702.22;2133193;27;20034;-84
2024/04/01 03:27:56;;;;;;;1.27;0.63;;;;;;;9.28;100.00;90706.09;2116463;28;20015;-84
2024/04/01 03:28:57;;;;;;;0.80;0.52;;;;;;;9.25;100.00;90705.06;2095450;28;20574;-81
2024/04/01 03:29:58;;;;;;;1.70;0.60;;;;;;;9.26;100.00;90703.13;2111867;28;20027;-83
2024/04/01 03:31:11;;;;;;;3.80;0.80;;;;;;;9.45;100.00;90701.69;2129911;27;20107;-80
2024/04/01 03:32:12;;;;;;;1.27;0.50;;;;;;;9.50;100.00;90694.94;2112366;28;20073;-86
2024/04/01 03:33:13;;;;;;;0.55;0.50;;;;;;;9.41;100.00;90687.09;2103851;28;20028;-82
2024/04/01 03:34:14;;;;;;;1.33;0.60;;;;;;;9.25;100.00;90691.75;2120893;27;20023;-80
2024/04/01 03:35:16;;;;;;;1.50;0.50;;;;;;;9.22;100.00;90697.28;2120585;28;20066;-83
2024/04/01 03:36:17;;;;;;;1.58;0.50;;;;;;;9.19;100.00;90695.56;2120772;28;20082;-83
2024/04/01 03:37:17;;;;;;;2.08;0.60;;;;;;;9.30;100.00;90695.69;2112413;28;20019;-83
2024/04/01 03:38:18;;;;;;;1.58;0.70;;;;;;;9.15;100.00;90697.69;2110407;28;20020;-82
2024/04/01 03:39:19;;;;;;;1.58;0.60;;;;;;;9.13;100.00;90692.06;2106603;28;20124;-82
2024/04/01 03:40:20;;;;;;;1.10;0.70;;;;;;;9.04;100.00;90701.69;2098209;28;20036;-82
2024/04/01 03:41:21;;;;;;;1.40;0.60;;;;;;;9.03;100.00;90694.13;2090086;28;20421;-82
2024/04/01 03:42:22;;;;;;;1.40;0.50;;;;;;;9.08;100.00;90696.84;2090201;28;20040;-83
2024/04/01 03:43:23;;;;;;;1.58;0.60;;;;;;;9.00;100.00;90705.72;2090212;28;20053;-81
2024/04/01 03:44:25;;;;;;;0.77;0.60;;;;;;;9.05;100.00;90703.13;2102703;28;20039;-83
2024/04/01 03:45:26;;;;;;;1.27;0.60;;;;;;;9.01;100.00;90691.22;2106252;28;20399;-84
2024/04/01 03:46:27;;;;;;;1.15;0.40;;;;;;;8.98;100.00;90687.53;2097431;28;20028;-84
2024/04/01 03:47:28;;;;;;;2.50;0.70;;;;;;;9.05;100.00;90673.09;2114779;28;20035;-81
2024/04/01 03:48:34;;;;;;;1.77;0.70;;;;;;;9.04;100.00;90674.28;2115062;28;20054;-81
2024/04/01 03:49:35;;;;;;;0.95;0.52;;;;;;;9.13;100.00;90676.84;2108049;28;20027;-81
2024/04/01 03:50:41;;;;;;;2.25;0.60;;;;;;;9.30;100.00;90677.00;2101782;28;20025;-85
2024/04/01 03:51:42;;;;;;;0.95;0.40;;;;;;;9.21;100.00;90682.47;2111820;28;20345;-81
2024/04/01 03:52:43;;;;;;;0.85;0.50;;;;;;;9.36;100.00;90696.50;2114727;28;20031;-83
2024/04/01 03:53:44;;;;;;;1.10;0.70;;;;;;;9.41;100.00;90695.81;2128730;27;20091;-87
2024/04/01 03:54:53;;;;;;;3.05;0.63;;;;;;;9.56;100.00;90699.13;2120601;27;20019;-82
2024/04/01 03:55:54;;;;;;;1.92;0.55;;;;;;;9.81;100.00;90702.31;2118030;27;20023;-84
2024/04/01 03:56:56;;;;;;;0.40;0.40;;;;;;;9.68;100.00;90705.34;2110262;28;20174;-84
2024/04/01 03:57:57;;;;;;;1.58;0.52;;;;;;;9.62;100.00;90698.50;2098182;28;20062;-81
2024/04/01 03:58:58;;;;;;;0.80;0.52;;;;;;;9.63;100.00;90710.63;2090341;28;20570;-84
2024/04/01 03:59:59;;;;;;;1.45;0.70;;;;;;;9.61;100.00;90713.72;2096156;28;20381;-81
2024/04/01 04:01:00;;;;;;;1.33;0.55;;;;;;;9.39;100.00;90724.88;2106309;28;20103;-82
2024/04/01 04:02:06;;;;;;;3.83;1.17;;;;;;;9.49;100.00;90733.50;2114940;28;20027;-81
2024/04/01 04:03:07;;;;;;;1.00;0.40;;;;;;;9.44;100.00;90729.56;2107208;28;20023;-84
2024/04/01 04:04:08;;;;;;;0.98;0.50;;;;;;;9.42;100.00;90737.28;2098073;28;20475;-83
2024/04/01 04:05:10;;;;;;;0.70;0.50;;;;;;;9.53;100.00;90734.75;2106433;28;20028;-83
2024/04/01 04:06:11;;;;;;;1.88;0.60;;;;;;;9.66;100.00;90739.75;2115300;28;20030;-82
2024/04/01 04:07:13;;;;;;;1.80;0.60;;;;;;;9.51;100.00;90726.47;2115436;28;20023;-83
2024/04/01 04:08:14;;;;;;;1.00;0.60;;;;;;;9.61;100.00;90729.00;2113963;28;20130;-83
2024/04/01 04:09:15;;;;;;;0.80;0.45;;;;;;;9.62;100.00;90730.50;2106412;28;20472;-83
2024/04/01 04:10:17;;;;;;;1.48;0.50;;;;;;;9.85;100.00;90740.19;2097897;28;20361;-85
2024/04/01 04:11:17;;;;;;;1.48;0.60;;;;;;;9.78;100.00;90748.59;2106263;28;20816;-83
2024/04/01 04:12:18;;;;;;;1.40;0.65;;;;;;;9.68;100.00;90755.28;2106409;28;20038;-83
2024/04/01 04:13:19;;;;;;;3.35;0.60;;;;;;;9.57;100.00;90750.56;2106432;28;20020;-83
2024/04/01 04:14:26;;;;;;;1.17;0.70;;;;;;;9.48;100.00;90753.34;2106697;28;20474;-83
2024/04/01 04:15:27;;;;;;;2.40;0.68;;;;;;;9.63;100.00;90743.34;2114800;28;20102;-83
2024/04/01 04:16:28;;;;;;;0.47;0.47;;;;;;;9.69;100.00;90735.41;2116318;27;20031;-81
2024/04/01 04:17:30;;;;;;;0.77;0.55;;;;;;;9.47;100.00;90736.59;2114898;28;20016;-83
2024/04/01 04:18:32;;;;;;;2.67;0.60;;;;;;;9.56;100.00;90739.13;2098201;28;20086;-83
2024/04/01 04:19:33;;;;;;;1.13;0.50;;;;;;;9.67;100.00;90753.81;2106591;28;20023;-83
2024/04/01 04:20:34;;;;;;;1.67;0.65;;;;;;;9.63;100.00;90763.97;2116982;27;20034;-80
2024/04/01 04:21:35;;;;;;;1.58;0.50;;;;;;;9.64;100.00;90766.16;2098764;28;20023;-81
2024/04/01 04:22:36;;;;;;;1.92;0.50;;;;;;;9.70;100.00;90763.53;2097859;28;20024;-83
2024/04/01 04:23:37;;;;;;;2.30;0.80;;;;;;;9.67;100.00;90764.50;2096868;28;20032;-81
2024/04/01 04:24:38;;;;;;;1.88;0.68;;;;;;;9.70;100.00;90758.19;2062999;28;20045;-80
2024/04/01 04:25:39;;;;;;;2.05;0.73;;;;;;;9.55;100.00;90760.94;2068691;28;20448;-80
2024/04/01 04:26:41;;;;;;;0.95;0.65;;;;;;;9.67;100.00;90761.81;2089500;28;20028;-85
2024/04/01 04:27:42;;;;;;;1.45;0.68;;;;;;;9.56;100.00;90763.13;2045312;28;20036;-82
2024/04/01 04:28:43;;;;;;;2.75;0.77;;;;;;;9.58;100.00;90768.75;2089369;28;23892;-82
2024/04/01 04:29:44;;;;;;;1.17;0.50;;;;;;;9.57;100.00;90766.56;1977129;28;22068;-82
2024/04/01 04:30:45;;;;;;;0.95;0.52;;;;;;;9.59;100.00;90770.22;1988357;28;20161;-83
2024/04/01 04:31:54;;;;;;;1.33;0.60;;;;;;;9.67;100.00;90770.56;2011137;28;20036;-83
2024/04/01 04:32:55;;;;;;;1.20;0.63;;;;;;;9.50;100.00;90769.63;2027047;28;21768;-83
2024/04/01 04:33:56;;;;;;;0.57;0.57;;;;;;;9.59;100.00;90767.53;2033663;28;20109;-83
2024/04/01 04:34:57;;;;;;;1.75;0.60;;;;;;;9.58;100.00;90776.03;2026876;28;23537;-83
2024/04/01 04:35:58;;;;;;;0.63;0.50;;;;;;;9.33;100.00;90774.72;2027463;28;22034;-81
2024/04/01 04:36:59;;;;;;;1.58;0.60;;;;;;;9.53;100.00;90764.09;2046395;28;20028;-82
2024/04/01 04:38:00;;;;;;;1.30;0.60;;;;;;;9.58;100.00;90784.75;2063880;28;20040;-83
2024/04/01 04:39:01;;;;;;;0.73;0.60;;;;;;;9.60;100.00;90794.94;2062500;28;20045;-83
2024/04/01 04:40:06;;;;;;;1.67;0.60;;;;;;;9.50;100.00;90789.00;2067949;28;20056;-83
2024/04/01 04:41:07;;;;;;;1.83;0.50;;;;;;;9.57;100.00;90791.28;2088960;28;20536;-81
2024/04/01 04:42:08;;;;;;;1.08;0.60;;;;;;;9.62;100.00;90811.22;2089652;28;20025;-82
2024/04/01 04:43:09;;;;;;;1.45;0.70;;;;;;;9.53;100.00;90814.75;2094330;28;20068;-82
2024/04/01 04:44:10;;;;;;;1.33;0.63;;;;;;;9.77;100.00;90811.16;2097223;28;20032;-82
2024/04/01 04:45:11;;;;;;;1.17;0.70;;;;;;;9.70;100.00;90814.22;2104325;28;20496;-81
2024/04/01 04:46:13;;;;;;;2.10;0.70;;;;;;;9.71;100.00;90819.09;2086200;28;20610;-82
2024/04/01 04:47:14;;;;;;;1.05;0.47;;;;;;;9.65;100.00;90828.22;2096508;28;20025;-83
2024/04/01 04:48:15;;;;;;;1.50;0.60;;;;;;;9.66;100.00;90827.03;2087028;28;20378;-82
2024/04/01 04:49:17;;;;;;;1.58;0.98;;;;;;;9.66;100.00;90824.34;2094375;28;20027;-81